sensor_id;sensor_type;location;lat;lon;timestamp;P1;durP1;ratioP1;P2;durP2;ratioP2
39502;SDS011;26970;49.900;10.774;2023-09-19T00:00:19;5.57;;;2.47;;
39502;SDS011;26970;49.900;10.774;2023-09-19T00:02:53;5.18;;;2.50;;
39502;SDS011;26970;49.900;10.774;2023-09-19T00:05:19;4.13;;;2.58;;
39502;SDS011;26970;49.900;10.774;2023-09-19T00:07:48;7.05;;;2.55;;
39502;SDS011;26970;49.900;10.774;2023-09-19T00:10:22;4.68;;;2.78;;
39502;SDS011;26970;49.900;10.774;2023-09-19T00:12:56;5.22;;;2.53;;
39502;SDS011;26970;49.900;10.774;2023-09-19T00:15:24;7.65;;;2.60;;
39502;SDS011;26970;49.900;10.774;2023-09-19T00:17:53;6.80;;;2.72;;
39502;SDS011;26970;49.900;10.774;2023-09-19T00:20:19;5.45;;;2.50;;
39502;SDS011;26970;49.900;10.774;2023-09-19T00:22:48;4.55;;;2.40;;
39502;SDS011;26970;49.900;10.774;2023-09-19T00:25:15;5.03;;;2.38;;
39502;SDS011;26970;49.900;10.774;2023-09-19T00:27:41;7.90;;;2.78;;
39502;SDS011;26970;49.900;10.774;2023-09-19T00:30:11;5.68;;;2.47;;
39502;SDS011;26970;49.900;10.774;2023-09-19T00:32:46;6.88;;;2.30;;
39502;SDS011;26970;49.900;10.774;2023-09-19T00:35:13;5.30;;;2.63;;
39502;SDS011;26970;49.900;10.774;2023-09-19T00:37:40;4.47;;;2.10;;
39502;SDS011;26970;49.900;10.774;2023-09-19T00:40:09;5.60;;;1.88;;
39502;SDS011;26970;49.900;10.774;2023-09-19T00:42:40;4.40;;;1.95;;
39502;SDS011;26970;49.900;10.774;2023-09-19T00:45:09;5.38;;;2.15;;
39502;SDS011;26970;49.900;10.774;2023-09-19T00:47:37;4.80;;;2.00;;
39502;SDS011;26970;49.900;10.774;2023-09-19T00:50:07;7.68;;;2.30;;
39502;SDS011;26970;49.900;10.774;2023-09-19T00:52:35;3.30;;;1.75;;
39502;SDS011;26970;49.900;10.774;2023-09-19T00:55:07;4.18;;;2.30;;
39502;SDS011;26970;49.900;10.774;2023-09-19T00:57:33;6.20;;;2.58;;
39502;SDS011;26970;49.900;10.774;2023-09-19T01:00:01;5.30;;;1.77;;
39502;SDS011;26970;49.900;10.774;2023-09-19T01:02:32;4.22;;;1.90;;
39502;SDS011;26970;49.900;10.774;2023-09-19T01:04:59;2.65;;;1.50;;
39502;SDS011;26970;49.900;10.774;2023-09-19T01:07:25;3.10;;;1.55;;
39502;SDS011;26970;49.900;10.774;2023-09-19T01:09:55;4.10;;;1.50;;
39502;SDS011;26970;49.900;10.774;2023-09-19T01:12:26;3.30;;;1.63;;
39502;SDS011;26970;49.900;10.774;2023-09-19T01:15:21;5.07;;;1.90;;
39502;SDS011;26970;49.900;10.774;2023-09-19T01:18:16;2.97;;;1.77;;
39502;SDS011;26970;49.900;10.774;2023-09-19T01:21:08;5.22;;;2.00;;
39502;SDS011;26970;49.900;10.774;2023-09-19T01:29:43;4.28;;;1.90;;
39502;SDS011;26970;49.900;10.774;2023-09-19T01:32:11;2.97;;;1.70;;
39502;SDS011;26970;49.900;10.774;2023-09-19T01:34:54;3.65;;;1.70;;
39502;SDS011;26970;49.900;10.774;2023-09-19T01:37:29;3.28;;;1.70;;
39502;SDS011;26970;49.900;10.774;2023-09-19T01:40:09;3.20;;;1.50;;
39502;SDS011;26970;49.900;10.774;2023-09-19T01:42:49;3.50;;;1.67;;
39502;SDS011;26970;49.900;10.774;2023-09-19T01:48:43;3.08;;;1.70;;
39502;SDS011;26970;49.900;10.774;2023-09-19T01:56:32;7.32;;;2.15;;
39502;SDS011;26970;49.900;10.774;2023-09-19T01:59:13;3.92;;;1.80;;
39502;SDS011;26970;49.900;10.774;2023-09-19T02:01:42;3.25;;;1.70;;
39502;SDS011;26970;49.900;10.774;2023-09-19T02:04:10;3.17;;;1.45;;
39502;SDS011;26970;49.900;10.774;2023-09-19T02:06:39;5.57;;;1.65;;
39502;SDS011;26970;49.900;10.774;2023-09-19T02:09:06;3.10;;;1.52;;
39502;SDS011;26970;49.900;10.774;2023-09-19T02:11:32;2.85;;;1.67;;
39502;SDS011;26970;49.900;10.774;2023-09-19T02:13:57;2.95;;;1.77;;
39502;SDS011;26970;49.900;10.774;2023-09-19T02:16:24;4.65;;;1.95;;
39502;SDS011;26970;49.900;10.774;2023-09-19T02:18:50;4.20;;;1.58;;
39502;SDS011;26970;49.900;10.774;2023-09-19T02:21:16;3.50;;;1.90;;
39502;SDS011;26970;49.900;10.774;2023-09-19T02:23:42;6.60;;;1.90;;
39502;SDS011;26970;49.900;10.774;2023-09-19T02:26:08;5.35;;;1.83;;
39502;SDS011;26970;49.900;10.774;2023-09-19T02:28:34;4.32;;;1.85;;
39502;SDS011;26970;49.900;10.774;2023-09-19T02:31:00;6.78;;;1.92;;
39502;SDS011;26970;49.900;10.774;2023-09-19T02:33:26;4.10;;;2.00;;
39502;SDS011;26970;49.900;10.774;2023-09-19T02:35:55;3.65;;;1.60;;
39502;SDS011;26970;49.900;10.774;2023-09-19T02:38:26;4.07;;;1.70;;
39502;SDS011;26970;49.900;10.774;2023-09-19T02:40:52;4.35;;;1.75;;
39502;SDS011;26970;49.900;10.774;2023-09-19T02:43:20;3.83;;;1.70;;
39502;SDS011;26970;49.900;10.774;2023-09-19T02:45:46;2.97;;;1.70;;
39502;SDS011;26970;49.900;10.774;2023-09-19T02:48:14;5.00;;;1.85;;
39502;SDS011;26970;49.900;10.774;2023-09-19T02:50:40;5.18;;;2.08;;
39502;SDS011;26970;49.900;10.774;2023-09-19T02:53:07;7.15;;;2.15;;
39502;SDS011;26970;49.900;10.774;2023-09-19T02:55:32;3.65;;;1.85;;
39502;SDS011;26970;49.900;10.774;2023-09-19T02:57:59;4.72;;;2.10;;
39502;SDS011;26970;49.900;10.774;2023-09-19T03:00:25;4.68;;;2.03;;
39502;SDS011;26970;49.900;10.774;2023-09-19T03:02:55;4.13;;;1.90;;
39502;SDS011;26970;49.900;10.774;2023-09-19T03:05:22;3.33;;;2.10;;
39502;SDS011;26970;49.900;10.774;2023-09-19T03:07:51;5.50;;;2.00;;
39502;SDS011;26970;49.900;10.774;2023-09-19T03:10:17;4.45;;;2.30;;
39502;SDS011;26970;49.900;10.774;2023-09-19T03:12:43;4.72;;;1.98;;
39502;SDS011;26970;49.900;10.774;2023-09-19T03:15:09;3.35;;;1.60;;
39502;SDS011;26970;49.900;10.774;2023-09-19T03:17:35;4.18;;;2.13;;
39502;SDS011;26970;49.900;10.774;2023-09-19T03:20:01;4.80;;;2.15;;
39502;SDS011;26970;49.900;10.774;2023-09-19T03:22:28;3.50;;;2.20;;
39502;SDS011;26970;49.900;10.774;2023-09-19T03:24:53;7.40;;;2.30;;
39502;SDS011;26970;49.900;10.774;2023-09-19T03:27:19;4.45;;;2.25;;
39502;SDS011;26970;49.900;10.774;2023-09-19T03:29:46;4.22;;;2.15;;
39502;SDS011;26970;49.900;10.774;2023-09-19T03:32:12;4.68;;;2.10;;
39502;SDS011;26970;49.900;10.774;2023-09-19T03:34:38;5.55;;;2.30;;
39502;SDS011;26970;49.900;10.774;2023-09-19T03:37:11;4.20;;;2.05;;
39502;SDS011;26970;49.900;10.774;2023-09-19T03:39:37;5.18;;;2.60;;
39502;SDS011;26970;49.900;10.774;2023-09-19T03:42:02;2.95;;;2.20;;
39502;SDS011;26970;49.900;10.774;2023-09-19T03:44:29;3.33;;;2.20;;
39502;SDS011;26970;49.900;10.774;2023-09-19T03:46:55;3.88;;;2.30;;
39502;SDS011;26970;49.900;10.774;2023-09-19T03:49:21;5.78;;;2.83;;
39502;SDS011;26970;49.900;10.774;2023-09-19T03:51:47;8.35;;;3.47;;
39502;SDS011;26970;49.900;10.774;2023-09-19T03:54:13;6.38;;;2.90;;
39502;SDS011;26970;49.900;10.774;2023-09-19T03:56:38;6.05;;;3.10;;
39502;SDS011;26970;49.900;10.774;2023-09-19T03:59:04;6.32;;;2.60;;
39502;SDS011;26970;49.900;10.774;2023-09-19T04:01:29;7.22;;;3.30;;
39502;SDS011;26970;49.900;10.774;2023-09-19T04:03:57;6.90;;;3.70;;
39502;SDS011;26970;49.900;10.774;2023-09-19T04:06:22;5.18;;;3.30;;
39502;SDS011;26970;49.900;10.774;2023-09-19T04:08:48;5.10;;;3.15;;
39502;SDS011;26970;49.900;10.774;2023-09-19T04:11:14;8.02;;;3.45;;
39502;SDS011;26970;49.900;10.774;2023-09-19T04:13:39;6.05;;;3.55;;
39502;SDS011;26970;49.900;10.774;2023-09-19T04:16:05;5.07;;;3.65;;
39502;SDS011;26970;49.900;10.774;2023-09-19T04:18:32;5.72;;;3.70;;
39502;SDS011;26970;49.900;10.774;2023-09-19T04:20:58;7.10;;;4.15;;
39502;SDS011;26970;49.900;10.774;2023-09-19T04:23:27;7.35;;;3.83;;
39502;SDS011;26970;49.900;10.774;2023-09-19T04:25:53;5.70;;;3.72;;
39502;SDS011;26970;49.900;10.774;2023-09-19T04:28:19;6.45;;;3.75;;
39502;SDS011;26970;49.900;10.774;2023-09-19T04:30:44;5.82;;;3.97;;
39502;SDS011;26970;49.900;10.774;2023-09-19T04:33:10;6.38;;;3.65;;
39502;SDS011;26970;49.900;10.774;2023-09-19T04:35:36;6.03;;;3.40;;
39502;SDS011;26970;49.900;10.774;2023-09-19T04:38:03;4.47;;;3.25;;
39502;SDS011;26970;49.900;10.774;2023-09-19T04:40:31;5.93;;;3.22;;
39502;SDS011;26970;49.900;10.774;2023-09-19T04:42:57;4.80;;;3.00;;
39502;SDS011;26970;49.900;10.774;2023-09-19T04:45:23;6.85;;;3.20;;
39502;SDS011;26970;49.900;10.774;2023-09-19T04:47:49;5.93;;;3.40;;
39502;SDS011;26970;49.900;10.774;2023-09-19T04:50:15;3.97;;;2.78;;
39502;SDS011;26970;49.900;10.774;2023-09-19T04:52:42;5.80;;;3.30;;
39502;SDS011;26970;49.900;10.774;2023-09-19T04:55:12;4.55;;;2.88;;
39502;SDS011;26970;49.900;10.774;2023-09-19T04:57:45;4.18;;;2.90;;
39502;SDS011;26970;49.900;10.774;2023-09-19T05:00:15;5.45;;;3.40;;
39502;SDS011;26970;49.900;10.774;2023-09-19T05:02:44;5.03;;;3.38;;
39502;SDS011;26970;49.900;10.774;2023-09-19T05:05:11;3.92;;;3.13;;
39502;SDS011;26970;49.900;10.774;2023-09-19T05:07:40;6.03;;;3.35;;
39502;SDS011;26970;49.900;10.774;2023-09-19T05:10:07;5.95;;;3.42;;
39502;SDS011;26970;49.900;10.774;2023-09-19T05:12:36;4.40;;;3.10;;
39502;SDS011;26970;49.900;10.774;2023-09-19T05:15:02;5.70;;;3.17;;
39502;SDS011;26970;49.900;10.774;2023-09-19T05:17:29;5.47;;;4.13;;
39502;SDS011;26970;49.900;10.774;2023-09-19T05:19:54;5.55;;;3.45;;
39502;SDS011;26970;49.900;10.774;2023-09-19T05:22:20;5.18;;;3.35;;
39502;SDS011;26970;49.900;10.774;2023-09-19T05:24:46;4.90;;;3.30;;
39502;SDS011;26970;49.900;10.774;2023-09-19T05:27:14;5.43;;;2.92;;
39502;SDS011;26970;49.900;10.774;2023-09-19T05:29:44;4.22;;;2.95;;
39502;SDS011;26970;49.900;10.774;2023-09-19T05:32:10;4.43;;;2.70;;
39502;SDS011;26970;49.900;10.774;2023-09-19T05:34:37;4.53;;;3.13;;
39502;SDS011;26970;49.900;10.774;2023-09-19T05:37:03;4.78;;;2.75;;
39502;SDS011;26970;49.900;10.774;2023-09-19T05:39:32;4.88;;;2.75;;
39502;SDS011;26970;49.900;10.774;2023-09-19T05:41:57;3.85;;;2.70;;
39502;SDS011;26970;49.900;10.774;2023-09-19T05:44:25;5.65;;;3.35;;
39502;SDS011;26970;49.900;10.774;2023-09-19T05:46:50;3.28;;;2.45;;
39502;SDS011;26970;49.900;10.774;2023-09-19T05:49:16;4.90;;;2.35;;
39502;SDS011;26970;49.900;10.774;2023-09-19T05:51:43;4.63;;;2.80;;
39502;SDS011;26970;49.900;10.774;2023-09-19T05:54:08;2.97;;;2.40;;
39502;SDS011;26970;49.900;10.774;2023-09-19T05:56:36;4.13;;;2.80;;
39502;SDS011;26970;49.900;10.774;2023-09-19T05:59:01;4.90;;;3.05;;
39502;SDS011;26970;49.900;10.774;2023-09-19T06:01:28;5.78;;;3.08;;
39502;SDS011;26970;49.900;10.774;2023-09-19T06:03:56;6.15;;;3.10;;
39502;SDS011;26970;49.900;10.774;2023-09-19T06:06:21;6.63;;;3.08;;
39502;SDS011;26970;49.900;10.774;2023-09-19T06:08:47;5.28;;;2.92;;
39502;SDS011;26970;49.900;10.774;2023-09-19T06:11:15;4.30;;;2.38;;
39502;SDS011;26970;49.900;10.774;2023-09-19T06:13:41;6.55;;;2.72;;
39502;SDS011;26970;49.900;10.774;2023-09-19T06:16:06;4.40;;;2.75;;
39502;SDS011;26970;49.900;10.774;2023-09-19T06:18:32;4.60;;;2.50;;
39502;SDS011;26970;49.900;10.774;2023-09-19T06:20:58;4.78;;;2.35;;
39502;SDS011;26970;49.900;10.774;2023-09-19T06:23:25;5.65;;;2.35;;
39502;SDS011;26970;49.900;10.774;2023-09-19T06:25:52;5.85;;;2.30;;
39502;SDS011;26970;49.900;10.774;2023-09-19T06:28:18;4.10;;;2.15;;
39502;SDS011;26970;49.900;10.774;2023-09-19T06:30:49;3.63;;;2.13;;
39502;SDS011;26970;49.900;10.774;2023-09-19T06:33:14;4.05;;;2.17;;
39502;SDS011;26970;49.900;10.774;2023-09-19T06:35:40;3.15;;;2.10;;
39502;SDS011;26970;49.900;10.774;2023-09-19T06:38:07;6.10;;;2.10;;
39502;SDS011;26970;49.900;10.774;2023-09-19T06:40:33;4.00;;;2.15;;
39502;SDS011;26970;49.900;10.774;2023-09-19T06:42:59;5.25;;;2.10;;
39502;SDS011;26970;49.900;10.774;2023-09-19T06:45:26;4.05;;;2.28;;
39502;SDS011;26970;49.900;10.774;2023-09-19T06:47:52;5.05;;;2.10;;
39502;SDS011;26970;49.900;10.774;2023-09-19T06:50:22;6.30;;;2.10;;
39502;SDS011;26970;49.900;10.774;2023-09-19T06:52:51;5.65;;;2.50;;
39502;SDS011;26970;49.900;10.774;2023-09-19T06:55:19;3.03;;;2.00;;
39502;SDS011;26970;49.900;10.774;2023-09-19T06:57:46;4.80;;;2.20;;
39502;SDS011;26970;49.900;10.774;2023-09-19T07:00:13;5.40;;;2.17;;
39502;SDS011;26970;49.900;10.774;2023-09-19T07:03:00;3.85;;;1.80;;
39502;SDS011;26970;49.900;10.774;2023-09-19T07:05:28;6.05;;;1.98;;
39502;SDS011;26970;49.900;10.774;2023-09-19T07:07:57;3.90;;;1.98;;
39502;SDS011;26970;49.900;10.774;2023-09-19T07:10:24;4.28;;;2.63;;
39502;SDS011;26970;49.900;10.774;2023-09-19T07:12:57;5.93;;;2.15;;
39502;SDS011;26970;49.900;10.774;2023-09-19T07:15:23;7.80;;;2.28;;
39502;SDS011;26970;49.900;10.774;2023-09-19T07:17:50;3.47;;;1.90;;
39502;SDS011;26970;49.900;10.774;2023-09-19T07:20:18;3.50;;;2.25;;
39502;SDS011;26970;49.900;10.774;2023-09-19T07:22:43;3.60;;;2.00;;
39502;SDS011;26970;49.900;10.774;2023-09-19T07:25:09;4.05;;;2.00;;
39502;SDS011;26970;49.900;10.774;2023-09-19T07:27:35;6.18;;;2.45;;
39502;SDS011;26970;49.900;10.774;2023-09-19T07:30:00;4.90;;;2.15;;
39502;SDS011;26970;49.900;10.774;2023-09-19T07:32:26;4.50;;;2.33;;
39502;SDS011;26970;49.900;10.774;2023-09-19T07:34:51;5.53;;;2.30;;
39502;SDS011;26970;49.900;10.774;2023-09-19T07:37:17;4.88;;;2.10;;
39502;SDS011;26970;49.900;10.774;2023-09-19T07:39:43;8.98;;;2.20;;
39502;SDS011;26970;49.900;10.774;2023-09-19T07:42:09;4.30;;;2.05;;
39502;SDS011;26970;49.900;10.774;2023-09-19T07:44:36;4.22;;;2.40;;
39502;SDS011;26970;49.900;10.774;2023-09-19T07:47:02;4.30;;;2.00;;
39502;SDS011;26970;49.900;10.774;2023-09-19T07:49:28;7.57;;;2.35;;
39502;SDS011;26970;49.900;10.774;2023-09-19T07:51:54;3.38;;;2.10;;
39502;SDS011;26970;49.900;10.774;2023-09-19T07:54:19;8.30;;;2.17;;
39502;SDS011;26970;49.900;10.774;2023-09-19T07:56:46;3.35;;;1.90;;
39502;SDS011;26970;49.900;10.774;2023-09-19T07:59:11;4.57;;;2.35;;
39502;SDS011;26970;49.900;10.774;2023-09-19T08:01:38;4.60;;;2.30;;
39502;SDS011;26970;49.900;10.774;2023-09-19T08:04:06;4.10;;;2.17;;
39502;SDS011;26970;49.900;10.774;2023-09-19T08:06:32;3.22;;;1.88;;
39502;SDS011;26970;49.900;10.774;2023-09-19T08:08:58;5.05;;;2.13;;
39502;SDS011;26970;49.900;10.774;2023-09-19T08:11:26;7.93;;;2.38;;
39502;SDS011;26970;49.900;10.774;2023-09-19T08:13:55;4.00;;;1.90;;
39502;SDS011;26970;49.900;10.774;2023-09-19T08:16:21;5.65;;;2.15;;
39502;SDS011;26970;49.900;10.774;2023-09-19T08:18:47;5.05;;;1.85;;
39502;SDS011;26970;49.900;10.774;2023-09-19T08:21:13;5.13;;;2.20;;
39502;SDS011;26970;49.900;10.774;2023-09-19T08:23:39;5.63;;;2.03;;
39502;SDS011;26970;49.900;10.774;2023-09-19T08:26:05;3.53;;;2.00;;
39502;SDS011;26970;49.900;10.774;2023-09-19T08:28:33;4.45;;;1.92;;
39502;SDS011;26970;49.900;10.774;2023-09-19T08:31:03;5.70;;;2.25;;
39502;SDS011;26970;49.900;10.774;2023-09-19T08:33:35;3.78;;;1.77;;
39502;SDS011;26970;49.900;10.774;2023-09-19T08:36:05;5.55;;;2.35;;
39502;SDS011;26970;49.900;10.774;2023-09-19T08:38:32;5.63;;;2.00;;
39502;SDS011;26970;49.900;10.774;2023-09-19T08:41:00;4.03;;;1.80;;
39502;SDS011;26970;49.900;10.774;2023-09-19T08:43:29;5.78;;;2.10;;
39502;SDS011;26970;49.900;10.774;2023-09-19T08:46:03;3.25;;;1.77;;
39502;SDS011;26970;49.900;10.774;2023-09-19T08:48:34;6.28;;;2.40;;
39502;SDS011;26970;49.900;10.774;2023-09-19T08:51:10;3.13;;;1.77;;
39502;SDS011;26970;49.900;10.774;2023-09-19T08:53:54;3.30;;;1.90;;
39502;SDS011;26970;49.900;10.774;2023-09-19T08:59:04;3.90;;;2.13;;
39502;SDS011;26970;49.900;10.774;2023-09-19T09:01:34;4.88;;;1.90;;
39502;SDS011;26970;49.900;10.774;2023-09-19T09:04:01;5.10;;;2.03;;
39502;SDS011;26970;49.900;10.774;2023-09-19T09:06:27;5.13;;;2.13;;
39502;SDS011;26970;49.900;10.774;2023-09-19T09:08:54;5.28;;;1.77;;
39502;SDS011;26970;49.900;10.774;2023-09-19T09:11:20;6.18;;;2.83;;
39502;SDS011;26970;49.900;10.774;2023-09-19T09:13:47;5.75;;;2.17;;
39502;SDS011;26970;49.900;10.774;2023-09-19T09:16:13;7.25;;;1.90;;
39502;SDS011;26970;49.900;10.774;2023-09-19T09:18:43;5.88;;;2.20;;
39502;SDS011;26970;49.900;10.774;2023-09-19T09:21:09;4.28;;;2.08;;
39502;SDS011;26970;49.900;10.774;2023-09-19T09:23:35;4.63;;;2.10;;
39502;SDS011;26970;49.900;10.774;2023-09-19T09:26:00;3.50;;;1.80;;
39502;SDS011;26970;49.900;10.774;2023-09-19T09:28:31;6.45;;;2.00;;
39502;SDS011;26970;49.900;10.774;2023-09-19T09:30:58;4.93;;;2.00;;
39502;SDS011;26970;49.900;10.774;2023-09-19T09:33:27;3.95;;;2.10;;
39502;SDS011;26970;49.900;10.774;2023-09-19T09:35:54;5.97;;;2.25;;
39502;SDS011;26970;49.900;10.774;2023-09-19T09:38:29;6.72;;;2.50;;
39502;SDS011;26970;49.900;10.774;2023-09-19T09:41:08;3.28;;;2.10;;
39502;SDS011;26970;49.900;10.774;2023-09-19T09:43:35;3.75;;;2.00;;
39502;SDS011;26970;49.900;10.774;2023-09-19T09:46:11;4.28;;;2.17;;
39502;SDS011;26970;49.900;10.774;2023-09-19T09:51:42;6.15;;;2.20;;
39502;SDS011;26970;49.900;10.774;2023-09-19T09:54:14;6.30;;;2.13;;
39502;SDS011;26970;49.900;10.774;2023-09-19T09:59:23;6.13;;;2.08;;
39502;SDS011;26970;49.900;10.774;2023-09-19T10:02:46;3.60;;;1.90;;
39502;SDS011;26970;49.900;10.774;2023-09-19T10:05:16;5.43;;;2.25;;
39502;SDS011;26970;49.900;10.774;2023-09-19T10:07:45;3.85;;;1.92;;
39502;SDS011;26970;49.900;10.774;2023-09-19T10:13:05;4.47;;;1.58;;
39502;SDS011;26970;49.900;10.774;2023-09-19T10:15:33;6.63;;;2.00;;
39502;SDS011;26970;49.900;10.774;2023-09-19T10:18:01;3.80;;;1.80;;
39502;SDS011;26970;49.900;10.774;2023-09-19T10:20:29;5.00;;;2.10;;
39502;SDS011;26970;49.900;10.774;2023-09-19T10:23:05;4.03;;;1.92;;
39502;SDS011;26970;49.900;10.774;2023-09-19T10:25:43;5.18;;;1.85;;
39502;SDS011;26970;49.900;10.774;2023-09-19T10:28:12;7.70;;;2.30;;
39502;SDS011;26970;49.900;10.774;2023-09-19T10:30:44;5.68;;;1.88;;
39502;SDS011;26970;49.900;10.774;2023-09-19T10:33:12;3.60;;;1.77;;
39502;SDS011;26970;49.900;10.774;2023-09-19T10:35:40;4.03;;;1.92;;
39502;SDS011;26970;49.900;10.774;2023-09-19T10:38:11;4.57;;;1.73;;
39502;SDS011;26970;49.900;10.774;2023-09-19T10:40:38;5.10;;;2.00;;
39502;SDS011;26970;49.900;10.774;2023-09-19T10:43:17;3.92;;;1.90;;
39502;SDS011;26970;49.900;10.774;2023-09-19T10:45:45;4.65;;;1.90;;
39502;SDS011;26970;49.900;10.774;2023-09-19T10:48:15;5.22;;;1.90;;
39502;SDS011;26970;49.900;10.774;2023-09-19T10:53:20;3.70;;;1.60;;
39502;SDS011;26970;49.900;10.774;2023-09-19T10:55:55;5.57;;;2.10;;
39502;SDS011;26970;49.900;10.774;2023-09-19T10:58:28;6.10;;;2.05;;
39502;SDS011;26970;49.900;10.774;2023-09-19T11:00:58;6.32;;;2.05;;
39502;SDS011;26970;49.900;10.774;2023-09-19T11:03:42;8.73;;;2.47;;
39502;SDS011;26970;49.900;10.774;2023-09-19T11:08:54;3.58;;;1.80;;
39502;SDS011;26970;49.900;10.774;2023-09-19T11:39:01;3.75;;;2.00;;
39502;SDS011;26970;49.900;10.774;2023-09-19T11:41:39;4.63;;;2.05;;
39502;SDS011;26970;49.900;10.774;2023-09-19T11:46:35;3.97;;;1.92;;
39502;SDS011;26970;49.900;10.774;2023-09-19T11:49:17;4.22;;;1.73;;
39502;SDS011;26970;49.900;10.774;2023-09-19T11:51:56;5.68;;;1.75;;
39502;SDS011;26970;49.900;10.774;2023-09-19T11:54:25;5.30;;;1.90;;
39502;SDS011;26970;49.900;10.774;2023-09-19T11:56:57;4.78;;;1.77;;
39502;SDS011;26970;49.900;10.774;2023-09-19T11:59:24;4.25;;;1.95;;
39502;SDS011;26970;49.900;10.774;2023-09-19T12:01:57;3.80;;;1.90;;
39502;SDS011;26970;49.900;10.774;2023-09-19T12:04:35;4.10;;;1.77;;
39502;SDS011;26970;49.900;10.774;2023-09-19T12:07:03;4.95;;;2.10;;
39502;SDS011;26970;49.900;10.774;2023-09-19T12:09:36;4.32;;;1.73;;
39502;SDS011;26970;49.900;10.774;2023-09-19T12:12:04;4.07;;;1.90;;
39502;SDS011;26970;49.900;10.774;2023-09-19T12:14:30;4.45;;;1.92;;
39502;SDS011;26970;49.900;10.774;2023-09-19T12:16:56;7.03;;;2.00;;
39502;SDS011;26970;49.900;10.774;2023-09-19T12:19:23;3.47;;;2.00;;
39502;SDS011;26970;49.900;10.774;2023-09-19T12:21:59;7.07;;;2.30;;
39502;SDS011;26970;49.900;10.774;2023-09-19T12:24:34;3.83;;;1.98;;
39502;SDS011;26970;49.900;10.774;2023-09-19T12:27:03;4.88;;;1.95;;
39502;SDS011;26970;49.900;10.774;2023-09-19T12:29:30;3.53;;;2.00;;
39502;SDS011;26970;49.900;10.774;2023-09-19T12:31:57;3.75;;;1.90;;
39502;SDS011;26970;49.900;10.774;2023-09-19T12:37:03;6.15;;;2.22;;
39502;SDS011;26970;49.900;10.774;2023-09-19T12:39:31;6.78;;;2.10;;
39502;SDS011;26970;49.900;10.774;2023-09-19T12:41:56;3.92;;;1.73;;
39502;SDS011;26970;49.900;10.774;2023-09-19T12:44:23;4.57;;;2.22;;
39502;SDS011;26970;49.900;10.774;2023-09-19T12:46:50;3.60;;;1.83;;
39502;SDS011;26970;49.900;10.774;2023-09-19T12:49:18;5.88;;;2.30;;
39502;SDS011;26970;49.900;10.774;2023-09-19T12:51:48;8.10;;;1.80;;
39502;SDS011;26970;49.900;10.774;2023-09-19T12:54:14;4.93;;;2.10;;
39502;SDS011;26970;49.900;10.774;2023-09-19T12:56:42;5.45;;;2.35;;
39502;SDS011;26970;49.900;10.774;2023-09-19T12:59:10;3.33;;;1.80;;
39502;SDS011;26970;49.900;10.774;2023-09-19T13:01:40;5.30;;;1.85;;
39502;SDS011;26970;49.900;10.774;2023-09-19T13:06:43;7.07;;;1.90;;
39502;SDS011;26970;49.900;10.774;2023-09-19T13:09:09;4.68;;;1.70;;
39502;SDS011;26970;49.900;10.774;2023-09-19T13:11:37;6.03;;;2.17;;
39502;SDS011;26970;49.900;10.774;2023-09-19T13:14:21;3.58;;;1.67;;
39502;SDS011;26970;49.900;10.774;2023-09-19T13:25:03;4.72;;;1.90;;
39502;SDS011;26970;49.900;10.774;2023-09-19T13:27:33;4.50;;;1.70;;
39502;SDS011;26970;49.900;10.774;2023-09-19T13:29:59;5.72;;;2.20;;
39502;SDS011;26970;49.900;10.774;2023-09-19T13:32:25;5.13;;;2.03;;
39502;SDS011;26970;49.900;10.774;2023-09-19T13:34:51;6.43;;;2.10;;
39502;SDS011;26970;49.900;10.774;2023-09-19T13:37:16;4.22;;;1.70;;
39502;SDS011;26970;49.900;10.774;2023-09-19T13:39:43;3.63;;;1.60;;
39502;SDS011;26970;49.900;10.774;2023-09-19T13:42:12;5.05;;;2.08;;
39502;SDS011;26970;49.900;10.774;2023-09-19T13:44:38;5.63;;;1.73;;
39502;SDS011;26970;49.900;10.774;2023-09-19T13:47:06;3.30;;;1.65;;
39502;SDS011;26970;49.900;10.774;2023-09-19T13:49:34;6.00;;;1.98;;
39502;SDS011;26970;49.900;10.774;2023-09-19T13:52:01;3.85;;;1.80;;
39502;SDS011;26970;49.900;10.774;2023-09-19T13:54:30;3.50;;;1.55;;
39502;SDS011;26970;49.900;10.774;2023-09-19T13:56:55;4.65;;;1.83;;
39502;SDS011;26970;49.900;10.774;2023-09-19T13:59:21;5.70;;;1.95;;
39502;SDS011;26970;49.900;10.774;2023-09-19T14:01:49;6.78;;;2.20;;
39502;SDS011;26970;49.900;10.774;2023-09-19T14:04:15;5.35;;;1.83;;
39502;SDS011;26970;49.900;10.774;2023-09-19T14:06:42;4.38;;;1.85;;
39502;SDS011;26970;49.900;10.774;2023-09-19T14:09:08;5.07;;;1.77;;
39502;SDS011;26970;49.900;10.774;2023-09-19T14:11:35;3.00;;;1.60;;
39502;SDS011;26970;49.900;10.774;2023-09-19T14:14:01;4.60;;;1.95;;
39502;SDS011;26970;49.900;10.774;2023-09-19T14:16:26;5.60;;;2.00;;
39502;SDS011;26970;49.900;10.774;2023-09-19T14:18:55;3.63;;;1.67;;
39502;SDS011;26970;49.900;10.774;2023-09-19T14:21:20;5.50;;;2.22;;
39502;SDS011;26970;49.900;10.774;2023-09-19T14:23:46;5.82;;;2.00;;
39502;SDS011;26970;49.900;10.774;2023-09-19T14:26:11;3.55;;;1.75;;
39502;SDS011;26970;49.900;10.774;2023-09-19T14:28:37;7.05;;;2.00;;
39502;SDS011;26970;49.900;10.774;2023-09-19T14:31:07;5.90;;;1.95;;
39502;SDS011;26970;49.900;10.774;2023-09-19T14:33:34;4.50;;;1.88;;
39502;SDS011;26970;49.900;10.774;2023-09-19T14:36:03;4.10;;;1.95;;
39502;SDS011;26970;49.900;10.774;2023-09-19T14:38:32;11.45;;;1.95;;
39502;SDS011;26970;49.900;10.774;2023-09-19T14:40:59;6.18;;;1.80;;
39502;SDS011;26970;49.900;10.774;2023-09-19T14:43:25;7.55;;;2.05;;
39502;SDS011;26970;49.900;10.774;2023-09-19T14:45:51;6.18;;;1.70;;
39502;SDS011;26970;49.900;10.774;2023-09-19T14:48:17;4.80;;;1.60;;
39502;SDS011;26970;49.900;10.774;2023-09-19T14:50:42;3.90;;;1.80;;
39502;SDS011;26970;49.900;10.774;2023-09-19T14:53:09;3.65;;;1.33;;
39502;SDS011;26970;49.900;10.774;2023-09-19T14:55:38;3.83;;;1.73;;
39502;SDS011;26970;49.900;10.774;2023-09-19T14:58:06;4.03;;;2.23;;
39502;SDS011;26970;49.900;10.774;2023-09-19T15:00:33;5.45;;;2.15;;
39502;SDS011;26970;49.900;10.774;2023-09-19T15:03:00;5.90;;;2.20;;
39502;SDS011;26970;49.900;10.774;2023-09-19T15:05:26;5.03;;;1.75;;
39502;SDS011;26970;49.900;10.774;2023-09-19T15:07:54;6.47;;;1.90;;
39502;SDS011;26970;49.900;10.774;2023-09-19T15:10:20;6.43;;;1.92;;
39502;SDS011;26970;49.900;10.774;2023-09-19T15:12:47;5.97;;;1.70;;
39502;SDS011;26970;49.900;10.774;2023-09-19T15:15:13;4.18;;;1.85;;
39502;SDS011;26970;49.900;10.774;2023-09-19T15:17:38;8.10;;;2.17;;
39502;SDS011;26970;49.900;10.774;2023-09-19T15:20:04;3.50;;;1.80;;
39502;SDS011;26970;49.900;10.774;2023-09-19T15:22:33;3.95;;;1.92;;
39502;SDS011;26970;49.900;10.774;2023-09-19T15:24:59;9.65;;;2.15;;
39502;SDS011;26970;49.900;10.774;2023-09-19T15:27:27;4.45;;;2.08;;
39502;SDS011;26970;49.900;10.774;2023-09-19T15:29:55;7.25;;;2.00;;
39502;SDS011;26970;49.900;10.774;2023-09-19T15:32:23;5.75;;;1.77;;
39502;SDS011;26970;49.900;10.774;2023-09-19T15:34:49;6.65;;;1.90;;
39502;SDS011;26970;49.900;10.774;2023-09-19T15:37:14;4.45;;;1.83;;
39502;SDS011;26970;49.900;10.774;2023-09-19T15:39:40;10.00;;;2.17;;
39502;SDS011;26970;49.900;10.774;2023-09-19T15:42:06;4.80;;;1.85;;
39502;SDS011;26970;49.900;10.774;2023-09-19T15:44:32;5.97;;;1.95;;
39502;SDS011;26970;49.900;10.774;2023-09-19T15:46:58;3.97;;;1.98;;
39502;SDS011;26970;49.900;10.774;2023-09-19T15:49:24;12.98;;;2.20;;
39502;SDS011;26970;49.900;10.774;2023-09-19T15:51:49;3.80;;;1.70;;
39502;SDS011;26970;49.900;10.774;2023-09-19T15:54:15;4.93;;;1.95;;